Time;durP1;ratioP1;P1;durP2;ratioP2;P2;SDS_P1;SDS_P2;PMS_P1;PMS_P2;Temp;Humidity;BMP_temperature;BMP_pressure;BME280_temperature;BME280_humidity;BME280_pressure;Samples;Min_cycle;Max_cycle;Signal;HPM_P1;HPM_P2
2023/08/27 00:00:46;;;;;;;;;;;;;;;27.29;42.62;99312.72;5075237;28;19959;-78
2023/08/27 00:03:11;;;;;;;;;;;;;;;27.25;42.89;99315.22;5057344;28;19982;-78
2023/08/27 00:05:42;;;;;;;;;;;;;;;27.26;42.95;99307.88;5075143;28;19958;-77
2023/08/27 00:08:08;;;;;;;;;;;;;;;27.22;42.66;99313.09;5075044;28;20475;-78
2023/08/27 00:10:33;;;;;;;;;;;;;;;27.14;42.73;99305.63;5075112;28;19912;-76
2023/08/27 00:12:58;;;;;;;;;;;;;;;27.07;42.44;99308.69;5074998;28;20313;-79
2023/08/27 00:15:23;;;;;;;;;;;;;;;26.99;44.11;99312.06;5075119;28;19913;-77
2023/08/27 00:17:49;;;;;;;;;;;;;;;26.88;43.45;99307.84;5074952;28;19917;-78
2023/08/27 00:20:14;;;;;;;;;;;;;;;26.75;43.01;99312.03;5074990;28;19913;-78
2023/08/27 00:22:39;;;;;;;;;;;;;;;26.67;42.75;99314.56;5074837;28;19912;-79
2023/08/27 00:25:05;;;;;;;;;;;;;;;26.58;42.72;99319.81;5074822;28;19913;-76
2023/08/27 00:27:30;;;;;;;;;;;;;;;26.50;43.59;99317.75;5056827;28;19912;-78
2023/08/27 00:29:56;;;;;;;;;;;;;;;26.50;42.90;99306.91;5075227;28;20004;-77
2023/08/27 00:32:21;;;;;;;;;;;;;;;26.48;42.71;99304.50;5075191;28;19916;-78
2023/08/27 00:34:46;;;;;;;;;;;;;;;26.47;42.88;99302.06;5075002;28;19919;-77
2023/08/27 00:37:11;;;;;;;;;;;;;;;26.40;43.72;99294.31;5075191;28;19912;-77
2023/08/27 00:39:37;;;;;;;;;;;;;;;26.39;43.36;99300.81;5075014;28;20003;-77
2023/08/27 00:42:04;;;;;;;;;;;;;;;26.42;43.89;99288.59;5074740;28;19912;-77
2023/08/27 00:44:29;;;;;;;;;;;;;;;26.43;44.88;99292.91;5074535;28;19969;-77
2023/08/27 00:46:55;;;;;;;;;;;;;;;26.42;43.16;99291.31;5074574;28;19912;-77
2023/08/27 00:49:20;;;;;;;;;;;;;;;26.32;43.43;99292.19;5074451;28;19979;-76
2023/08/27 00:51:46;;;;;;;;;;;;;;;26.20;43.57;99289.09;5073027;28;20306;-76
2023/08/27 00:54:11;;;;;;;;;;;;;;;26.13;43.77;99297.53;5074492;28;19912;-78
2023/08/27 00:56:37;;;;;;;;;;;;;;;26.03;45.02;99299.53;5056381;28;19919;-77
2023/08/27 00:59:03;;;;;;;;;;;;;;;25.96;45.08;99291.72;5074391;28;19953;-77
2023/08/27 01:01:30;;;;;;;;;;;;;;;25.82;44.70;99296.19;5052942;28;19931;-77
2023/08/27 01:03:55;;;;;;;;;;;;;;;25.72;45.05;99288.97;5052937;28;19917;-78
2023/08/27 01:06:20;;;;;;;;;;;;;;;25.67;45.57;99291.72;5052921;28;19986;-78
2023/08/27 01:09:06;;;;;;;;;;;;;;;25.58;45.77;99296.09;5054173;28;19919;-78
2023/08/27 01:11:31;;;;;;;;;;;;;;;25.46;44.61;99287.53;5053901;28;19966;-78
2023/08/27 01:14:01;;;;;;;;;;;;;;;25.45;44.90;99294.03;5054233;28;19916;-77
2023/08/27 01:16:28;;;;;;;;;;;;;;;25.39;45.97;99289.75;5054348;28;19986;-78
2023/08/27 01:18:54;;;;;;;;;;;;;;;25.38;45.60;99290.84;5053916;28;19964;-79
2023/08/27 01:21:23;;;;;;;;;;;;;;;25.28;45.63;99281.72;5054002;28;19955;-78
2023/08/27 01:23:48;;;;;;;;;;;;;;;25.25;45.22;99276.84;5054150;28;20286;-78
2023/08/27 01:26:17;;;;;;;;;;;;;;;25.23;46.15;99283.59;5053697;28;19920;-77
2023/08/27 01:28:45;;;;;;;;;;;;;;;25.23;45.90;99283.59;5053563;28;19919;-78
2023/08/27 01:31:13;;;;;;;;;;;;;;;25.21;46.93;99278.47;5053733;28;20385;-78
2023/08/27 01:33:40;;;;;;;;;;;;;;;25.20;47.62;99273.34;5053706;28;19939;-77
2023/08/27 01:36:07;;;;;;;;;;;;;;;25.17;46.93;99279.31;5053768;28;19912;-78
2023/08/27 01:38:32;;;;;;;;;;;;;;;25.06;47.31;99275.88;5053595;28;19924;-79
2023/08/27 01:40:58;;;;;;;;;;;;;;;25.06;47.38;99267.78;5053456;28;20325;-78
2023/08/27 01:43:23;;;;;;;;;;;;;;;25.03;46.50;99262.94;5053562;28;19991;-78
2023/08/27 01:45:48;;;;;;;;;;;;;;;24.99;48.35;99264.56;5053390;28;19924;-78
2023/08/27 01:48:14;;;;;;;;;;;;;;;24.93;48.46;99268.34;5053622;28;19917;-78
2023/08/27 01:50:39;;;;;;;;;;;;;;;24.91;47.98;99267.84;5053473;28;19913;-78
2023/08/27 01:53:04;;;;;;;;;;;;;;;24.90;47.30;99274.31;5053443;28;19916;-78
2023/08/27 01:55:29;;;;;;;;;;;;;;;24.91;47.75;99271.34;5053679;28;19919;-79
2023/08/27 01:57:54;;;;;;;;;;;;;;;24.89;49.07;99268.09;5053461;28;20459;-78
2023/08/27 02:00:20;;;;;;;;;;;;;;;24.82;48.58;99273.00;5056162;28;20018;-78
2023/08/27 02:02:45;;;;;;;;;;;;;;;24.73;48.55;99266.56;5072800;28;19956;-78
2023/08/27 02:05:11;;;;;;;;;;;;;;;24.66;49.78;99269.56;5073208;28;20386;-78
2023/08/27 02:07:37;;;;;;;;;;;;;;;24.59;48.34;99269.06;5073278;28;20393;-78
2023/08/27 02:10:03;;;;;;;;;;;;;;;24.61;48.01;99266.09;5073592;28;19952;-78
2023/08/27 02:12:28;;;;;;;;;;;;;;;24.52;50.40;99259.63;5080132;28;19913;-78
2023/08/27 02:14:53;;;;;;;;;;;;;;;24.49;48.86;99263.69;5093819;28;19912;-78
2023/08/27 02:17:19;;;;;;;;;;;;;;;24.44;48.19;99255.59;5081656;28;19912;-78
2023/08/27 02:19:44;;;;;;;;;;;;;;;24.43;49.23;99251.28;5073351;28;20363;-78
2023/08/27 02:22:09;;;;;;;;;;;;;;;24.49;48.69;99250.19;5073248;28;20363;-78
2023/08/27 02:24:35;;;;;;;;;;;;;;;24.52;50.07;99244.22;5072830;28;20289;-78
2023/08/27 02:27:00;;;;;;;;;;;;;;;24.51;47.57;99244.50;5072542;28;19913;-78
2023/08/27 02:29:25;;;;;;;;;;;;;;;24.49;48.47;99246.69;5072376;28;20007;-76
2023/08/27 02:31:51;;;;;;;;;;;;;;;24.45;51.12;99246.41;5072581;28;19946;-78
2023/08/27 02:34:16;;;;;;;;;;;;;;;24.37;51.34;99255.91;5054603;28;20304;-77
2023/08/27 02:36:42;;;;;;;;;;;;;;;24.36;49.73;99256.16;5059342;28;19918;-78
2023/08/27 02:39:07;;;;;;;;;;;;;;;24.34;50.46;99255.63;5077548;28;19916;-78
2023/08/27 02:41:32;;;;;;;;;;;;;;;24.40;49.14;99259.94;5077811;28;19912;-77
2023/08/27 02:43:57;;;;;;;;;;;;;;;24.39;50.38;99259.13;5054851;28;20073;-78
2023/08/27 02:46:23;;;;;;;;;;;;;;;24.37;49.23;99261.28;5073458;28;19912;-78
2023/08/27 02:48:48;;;;;;;;;;;;;;;24.38;50.41;99257.50;5072401;28;19938;-76
2023/08/27 02:51:13;;;;;;;;;;;;;;;24.35;48.91;99262.66;5072137;28;19915;-79
2023/08/27 02:53:38;;;;;;;;;;;;;;;24.28;50.23;99272.94;5071936;28;19923;-78
2023/08/27 02:56:04;;;;;;;;;;;;;;;24.27;49.12;99271.31;5072132;28;20308;-78
2023/08/27 02:58:30;;;;;;;;;;;;;;;24.30;50.86;99270.75;5053948;28;19916;-78
2023/08/27 03:00:55;;;;;;;;;;;;;;;24.28;50.63;99271.03;5071813;28;19920;-78
2023/08/27 03:03:20;;;;;;;;;;;;;;;24.24;51.47;99277.22;5071936;28;19912;-78
2023/08/27 03:05:46;;;;;;;;;;;;;;;24.17;52.50;99279.41;5071875;28;19912;-78
2023/08/27 03:08:11;;;;;;;;;;;;;;;24.16;50.38;99272.38;5071901;28;19905;-78
2023/08/27 03:10:37;;;;;;;;;;;;;;;24.10;50.25;99274.28;5071822;28;19941;-78
2023/08/27 03:13:02;;;;;;;;;;;;;;;23.99;51.14;99273.50;5071703;28;19912;-79
2023/08/27 03:15:27;;;;;;;;;;;;;;;23.96;51.94;99267.84;5071096;28;20392;-78
2023/08/27 03:17:53;;;;;;;;;;;;;;;23.95;51.00;99260.84;5071791;28;19917;-78
2023/08/27 03:20:18;;;;;;;;;;;;;;;24.04;51.64;99261.91;5071750;28;19920;-78
2023/08/27 03:22:43;;;;;;;;;;;;;;;24.06;50.73;99274.03;5071691;28;19911;-78
2023/08/27 03:25:08;;;;;;;;;;;;;;;24.05;50.33;99272.41;5071498;28;19978;-78
2023/08/27 03:27:36;;;;;;;;;;;;;;;24.02;52.49;99264.88;5071593;28;19919;-78
2023/08/27 03:30:03;;;;;;;;;;;;;;;24.04;52.41;99265.41;5071658;28;19920;-78
2023/08/27 03:32:28;;;;;;;;;;;;;;;24.06;51.56;99262.44;5071680;28;19913;-78
2023/08/27 03:34:54;;;;;;;;;;;;;;;24.10;51.18;99258.09;5071681;28;19999;-77
2023/08/27 03:37:20;;;;;;;;;;;;;;;24.11;51.14;99251.63;5071334;28;19991;-78
2023/08/27 03:39:45;;;;;;;;;;;;;;;24.07;51.87;99256.75;5071523;28;19942;-78
2023/08/27 03:42:10;;;;;;;;;;;;;;;24.05;52.46;99253.53;5071717;28;19919;-78
2023/08/27 03:44:36;;;;;;;;;;;;;;;23.98;52.87;99258.41;5053729;28;20440;-78
2023/08/27 03:47:02;;;;;;;;;;;;;;;24.04;51.93;99257.31;5071580;28;19987;-78
2023/08/27 03:49:27;;;;;;;;;;;;;;;24.02;51.10;99264.88;5071710;28;20404;-78
2023/08/27 03:51:53;;;;;;;;;;;;;;;24.01;52.49;99257.06;5071309;28;19912;-78
2023/08/27 03:54:18;;;;;;;;;;;;;;;23.99;51.21;99265.41;5053236;28;20009;-78
2023/08/27 03:56:43;;;;;;;;;;;;;;;23.97;52.64;99264.88;5071630;28;19912;-78
2023/08/27 03:59:08;;;;;;;;;;;;;;;23.98;52.90;99266.50;5071426;28;20465;-78
2023/08/27 04:01:34;;;;;;;;;;;;;;;23.98;51.88;99268.38;5071332;28;19921;-78
2023/08/27 04:03:59;;;;;;;;;;;;;;;23.94;52.36;99268.13;5071358;28;19995;-80
2023/08/27 04:06:25;;;;;;;;;;;;;;;23.92;53.77;99272.16;5071349;28;19912;-78
2023/08/27 04:08:50;;;;;;;;;;;;;;;23.96;51.27;99274.03;5071257;28;19912;-78
2023/08/27 04:11:17;;;;;;;;;;;;;;;24.03;52.54;99271.88;5070549;28;20292;-76
2023/08/27 04:13:42;;;;;;;;;;;;;;;24.02;53.26;99270.25;5071770;28;19912;-78
2023/08/27 04:16:08;;;;;;;;;;;;;;;24.02;53.48;99274.84;5071201;28;19916;-77
2023/08/27 04:18:34;;;;;;;;;;;;;;;24.02;52.24;99278.34;5071279;28;20346;-78
2023/08/27 04:20:59;;;;;;;;;;;;;;;24.09;52.20;99278.06;5071152;28;19913;-78
2023/08/27 04:23:25;;;;;;;;;;;;;;;24.09;52.70;99276.19;5071123;28;19969;-78
2023/08/27 04:25:50;;;;;;;;;;;;;;;24.06;53.98;99276.72;5053178;28;20320;-78
2023/08/27 04:28:16;;;;;;;;;;;;;;;24.01;54.46;99276.75;5074871;28;19963;-78
2023/08/27 04:30:42;;;;;;;;;;;;;;;23.95;53.44;99275.13;5074611;28;19913;-78
2023/08/27 04:33:07;;;;;;;;;;;;;;;23.97;52.64;99278.38;5074604;28;19956;-78
2023/08/27 04:35:33;;;;;;;;;;;;;;;24.02;52.90;99280.25;5056782;28;19997;-78
2023/08/27 04:37:59;;;;;;;;;;;;;;;24.07;52.60;99281.03;5074808;28;19994;-78
2023/08/27 04:40:24;;;;;;;;;;;;;;;24.10;52.49;99271.59;5074835;28;19919;-78
2023/08/27 04:42:49;;;;;;;;;;;;;;;24.17;53.60;99282.09;5074477;28;20001;-78
2023/08/27 04:45:14;;;;;;;;;;;;;;;24.15;55.70;99285.06;5074577;28;19909;-78
2023/08/27 04:47:41;;;;;;;;;;;;;;;24.18;52.90;99284.53;5074342;28;19963;-78
2023/08/27 04:50:07;;;;;;;;;;;;;;;24.17;52.25;99285.59;5074194;28;20279;-79
2023/08/27 04:52:33;;;;;;;;;;;;;;;24.09;55.02;99286.97;5074147;28;19919;-78
2023/08/27 04:54:58;;;;;;;;;;;;;;;24.16;55.44;99288.56;5056120;28;19913;-78
2023/08/27 04:57:23;;;;;;;;;;;;;;;24.22;54.00;99284.78;5074056;28;19912;-77
2023/08/27 04:59:49;;;;;;;;;;;;;;;24.28;56.33;99289.13;5074203;28;19923;-77
2023/08/27 05:02:14;;;;;;;;;;;;;;;24.34;53.28;99290.72;5073763;28;20385;-77
2023/08/27 05:04:39;;;;;;;;;;;;;;;24.36;54.52;99280.47;5074066;28;19917;-79
2023/08/27 05:07:04;;;;;;;;;;;;;;;24.42;54.85;99283.94;5074167;28;19919;-78
2023/08/27 05:09:29;;;;;;;;;;;;;;;24.51;56.48;99287.69;5074085;28;19912;-76
2023/08/27 05:11:55;;;;;;;;;;;;;;;24.58;55.62;99294.44;5074137;28;20385;-78
2023/08/27 05:14:20;;;;;;;;;;;;;;;24.61;55.27;99285.78;5074029;28;19912;-78
2023/08/27 05:16:45;;;;;;;;;;;;;;;24.73;55.73;99292.75;5073856;28;19919;-78
2023/08/27 05:19:11;;;;;;;;;;;;;;;24.82;55.41;99300.00;5073748;28;19916;-78
2023/08/27 05:21:36;;;;;;;;;;;;;;;24.92;55.15;99296.47;5073849;28;19912;-78
2023/08/27 05:24:02;;;;;;;;;;;;;;;24.94;55.65;99291.59;5073909;28;19909;-78
2023/08/27 05:26:27;;;;;;;;;;;;;;;25.01;56.40;99292.13;5073789;28;19924;-78
2023/08/27 05:28:52;;;;;;;;;;;;;;;25.07;55.48;99290.19;5073927;28;20309;-79
2023/08/27 05:31:17;;;;;;;;;;;;;;;25.15;55.38;99290.41;5074201;28;20936;-77
2023/08/27 05:33:43;;;;;;;;;;;;;;;25.24;56.82;99294.13;5056395;28;19917;-78
2023/08/27 05:36:09;;;;;;;;;;;;;;;25.27;57.03;99299.00;5073959;28;19947;-78
2023/08/27 05:38:34;;;;;;;;;;;;;;;25.34;58.03;99304.09;5073173;28;20003;-78
2023/08/27 05:40:59;;;;;;;;;;;;;;;25.39;57.60;99300.56;5073997;28;19920;-78
2023/08/27 05:43:25;;;;;;;;;;;;;;;25.43;55.98;99298.91;5073591;28;19966;-78
2023/08/27 05:45:50;;;;;;;;;;;;;;;25.48;56.49;99301.56;5073514;28;19938;-78
2023/08/27 05:48:16;;;;;;;;;;;;;;;25.50;57.33;99300.19;5080248;28;20321;-77
2023/08/27 05:50:41;;;;;;;;;;;;;;;25.47;57.77;99303.47;5079660;28;20389;-78
2023/08/27 05:53:06;;;;;;;;;;;;;;;25.50;57.76;99304.78;5055150;28;19974;-78
2023/08/27 05:55:32;;;;;;;;;;;;;;;25.45;58.06;99304.84;5073016;28;19921;-78
2023/08/27 05:57:57;;;;;;;;;;;;;;;25.45;58.49;99300.25;5073107;28;20058;-78
2023/08/27 06:00:22;;;;;;;;;;;;;;;25.46;58.42;99301.03;5072903;28;20393;-78
2023/08/27 06:02:47;;;;;;;;;;;;;;;25.46;58.42;99309.97;5072936;28;19917;-78
2023/08/27 06:05:13;;;;;;;;;;;;;;;25.42;59.91;99308.91;5072908;28;19912;-77
2023/08/27 06:07:39;;;;;;;;;;;;;;;25.46;60.47;99312.66;5072979;28;19963;-77
2023/08/27 06:10:05;;;;;;;;;;;;;;;25.54;55.56;99316.66;5072977;28;19919;-77
2023/08/27 06:12:30;;;;;;;;;;;;;;;25.59;57.98;99305.81;5073106;28;19970;-78
2023/08/27 06:14:55;;;;;;;;;;;;;;;25.60;59.03;99313.63;5072878;28;20448;-78
2023/08/27 06:17:21;;;;;;;;;;;;;;;25.59;59.19;99313.91;5072969;28;19913;-78
2023/08/27 06:19:46;;;;;;;;;;;;;;;25.62;60.63;99311.47;5072824;28;19916;-78
2023/08/27 06:22:11;;;;;;;;;;;;;;;25.68;59.44;99320.38;5072639;28;20309;-78
2023/08/27 06:24:36;;;;;;;;;;;;;;;25.72;57.97;99310.59;5072575;28;19919;-78
2023/08/27 06:27:02;;;;;;;;;;;;;;;25.76;60.52;99311.66;5054660;28;20294;-78
2023/08/27 06:29:27;;;;;;;;;;;;;;;25.81;58.71;99303.50;5072355;28;19917;-78
2023/08/27 06:31:52;;;;;;;;;;;;;;;25.89;57.32;99313.69;5054554;28;19919;-77
2023/08/27 06:34:17;;;;;;;;;;;;;;;25.96;58.80;99313.38;5072650;28;19955;-78
2023/08/27 06:36:43;;;;;;;;;;;;;;;26.01;56.67;99309.81;5054633;28;19912;-76
2023/08/27 06:39:08;;;;;;;;;;;;;;;26.04;61.16;99309.28;5054229;28;19924;-77
2023/08/27 06:41:33;;;;;;;;;;;;;;;26.05;57.95;99302.75;5072271;28;19916;-77
2023/08/27 06:43:58;;;;;;;;;;;;;;;26.17;57.86;99303.19;5072218;28;19916;-77
2023/08/27 06:46:24;;;;;;;;;;;;;;;26.28;57.71;99302.78;5054442;28;19918;-76
2023/08/27 06:48:49;;;;;;;;;;;;;;;26.37;57.34;99308.41;5054267;28;19912;-78
2023/08/27 06:51:14;;;;;;;;;;;;;;;26.43;56.84;99304.56;5072228;28;19912;-77
2023/08/27 06:53:39;;;;;;;;;;;;;;;26.48;57.09;99307.22;5071815;28;19981;-78
2023/08/27 06:56:05;;;;;;;;;;;;;;;26.54;55.85;99302.53;5072068;28;19921;-78
2023/08/27 06:58:30;;;;;;;;;;;;;;;26.57;55.72;99302.75;5072330;28;19940;-79
2023/08/27 07:00:56;;;;;;;;;;;;;;;26.59;57.17;99302.47;5054135;28;19977;-76
2023/08/27 07:03:22;;;;;;;;;;;;;;;26.65;56.46;99298.63;5054129;28;19959;-78
2023/08/27 07:05:48;;;;;;;;;;;;;;;26.72;56.59;99292.84;5072100;28;20432;-78
2023/08/27 07:08:13;;;;;;;;;;;;;;;26.83;53.91;99299.78;5072152;28;19918;-78
2023/08/27 07:10:38;;;;;;;;;;;;;;;26.95;56.11;99293.94;5072239;28;19921;-78
2023/08/27 07:13:04;;;;;;;;;;;;;;;27.00;54.37;99296.59;5071858;28;19913;-78
2023/08/27 07:15:29;;;;;;;;;;;;;;;27.08;53.63;99293.22;5072160;28;19908;-78
2023/08/27 07:17:55;;;;;;;;;;;;;;;27.16;53.67;99295.28;5071821;28;19916;-78
2023/08/27 07:20:20;;;;;;;;;;;;;;;27.19;53.46;99292.00;5072378;28;20316;-78
2023/08/27 07:22:45;;;;;;;;;;;;;;;27.21;52.66;99287.88;5072140;28;19915;-77
2023/08/27 07:25:11;;;;;;;;;;;;;;;27.32;53.30;99288.53;5072384;28;19913;-77
2023/08/27 07:27:36;;;;;;;;;;;;;;;27.42;53.03;99285.66;5072056;28;19919;-76
2023/08/27 07:30:02;;;;;;;;;;;;;;;27.50;52.18;99284.22;5071723;28;20393;-78
2023/08/27 07:32:27;;;;;;;;;;;;;;;27.62;52.29;99283.78;5071635;28;20317;-79
2023/08/27 07:34:52;;;;;;;;;;;;;;;27.68;51.77;99280.69;5071504;28;19913;-78
2023/08/27 07:37:17;;;;;;;;;;;;;;;27.75;52.21;99275.69;5053488;28;20351;-77
2023/08/27 07:39:43;;;;;;;;;;;;;;;27.79;52.13;99279.41;5053327;28;19924;-78
2023/08/27 07:42:08;;;;;;;;;;;;;;;27.80;51.25;99277.50;5071541;28;19917;-78
2023/08/27 07:44:33;;;;;;;;;;;;;;;27.88;50.61;99281.44;5071615;28;20424;-79
2023/08/27 07:46:59;;;;;;;;;;;;;;;27.95;50.14;99276.44;5071469;28;19922;-76
2023/08/27 07:49:24;;;;;;;;;;;;;;;27.94;50.30;99281.06;5071718;28;19935;-75
2023/08/27 07:51:49;;;;;;;;;;;;;;;27.98;49.71;99273.13;5053582;28;19913;-78
2023/08/27 07:54:14;;;;;;;;;;;;;;;28.03;49.30;99268.41;5071405;28;19973;-78
2023/08/27 07:56:40;;;;;;;;;;;;;;;28.02;48.64;99269.50;5053589;28;19912;-78
2023/08/27 07:59:05;;;;;;;;;;;;;;;28.14;48.74;99269.03;5053869;28;19916;-78
2023/08/27 08:01:31;;;;;;;;;;;;;;;28.26;48.52;99261.25;5072812;28;19927;-78
2023/08/27 08:03:56;;;;;;;;;;;;;;;28.33;47.82;99255.41;5075896;28;19916;-78
2023/08/27 08:06:22;;;;;;;;;;;;;;;28.44;47.14;99265.78;5075671;28;19919;-77
2023/08/27 08:08:47;;;;;;;;;;;;;;;28.59;46.82;99255.69;5075659;28;19965;-77
2023/08/27 08:11:12;;;;;;;;;;;;;;;28.72;46.25;99260.31;5075527;28;20286;-77
2023/08/27 08:13:40;;;;;;;;;;;;;;;28.86;46.57;99252.97;5057383;28;19912;-77
2023/08/27 08:16:05;;;;;;;;;;;;;;;29.00;46.24;99255.69;5075586;28;20369;-77
2023/08/27 08:18:30;;;;;;;;;;;;;;;29.16;45.53;99247.97;5075360;28;19916;-77
2023/08/27 08:20:58;;;;;;;;;;;;;;;29.29;45.18;99253.38;5075895;28;19948;-77
2023/08/27 08:23:24;;;;;;;;;;;;;;;29.38;44.77;99250.69;5057576;28;19920;-77
2023/08/27 08:25:49;;;;;;;;;;;;;;;29.50;44.43;99250.19;5075833;28;19912;-77
2023/08/27 08:28:15;;;;;;;;;;;;;;;29.51;44.46;99243.63;5074909;28;19966;-76
2023/08/27 08:30:45;;;;;;;;;;;;;;;29.55;43.70;99242.69;5074910;28;19913;-78
2023/08/27 08:33:10;;;;;;;;;;;;;;;29.70;43.92;99239.59;5074827;28;19979;-78
2023/08/27 08:35:35;;;;;;;;;;;;;;;29.88;44.07;99231.53;5074855;28;20389;-77
2023/08/27 08:38:00;;;;;;;;;;;;;;;30.00;43.38;99235.28;5074477;28;19916;-78
2023/08/27 08:40:26;;;;;;;;;;;;;;;30.15;43.20;99227.84;5074474;28;19962;-78
2023/08/27 08:42:55;;;;;;;;;;;;;;;30.25;42.18;99231.06;5074624;28;19917;-77
2023/08/27 08:45:29;;;;;;;;;;;;;;;30.32;41.36;99238.78;5056556;28;19912;-77
2023/08/27 08:47:55;;;;;;;;;;;;;;;30.43;40.94;99237.38;5074668;28;19969;-78
2023/08/27 08:50:21;;;;;;;;;;;;;;;30.54;40.03;99235.19;5056635;28;19920;-78
2023/08/27 08:52:48;;;;;;;;;;;;;;;30.66;38.87;99228.03;5074624;28;19913;-78
2023/08/27 08:55:15;;;;;;;;;;;;;;;30.88;40.50;99226.28;5074391;28;19919;-76
2023/08/27 08:57:43;;;;;;;;;;;;;;;31.06;39.73;99227.09;5074447;28;19952;-78
2023/08/27 09:00:11;;;;;;;;;;;;;;;31.23;40.07;99225.22;5083588;28;19924;-77
2023/08/27 09:02:37;;;;;;;;;;;;;;;31.32;39.66;99222.47;5087420;28;19905;-77
2023/08/27 09:05:04;;;;;;;;;;;;;;;31.57;39.64;99218.91;5057751;28;19912;-77
2023/08/27 09:07:32;;;;;;;;;;;;;;;31.75;39.17;99211.50;5074252;28;19913;-78
2023/08/27 09:09:58;;;;;;;;;;;;;;;31.87;38.57;99219.00;5074325;28;20309;-78
2023/08/27 09:12:24;;;;;;;;;;;;;;;32.07;37.33;99209.31;5073366;28;19991;-78
2023/08/27 09:14:50;;;;;;;;;;;;;;;32.07;34.94;99198.38;5073445;28;19916;-77
2023/08/27 09:17:18;;;;;;;;;;;;;;;32.10;35.34;99195.00;5055870;28;19912;-76
2023/08/27 09:19:46;;;;;;;;;;;;;;;32.32;36.33;99207.59;5073621;28;19916;-78
2023/08/27 09:22:11;;;;;;;;;;;;;;;32.47;35.57;99198.84;5074139;28;19966;-78
2023/08/27 09:24:36;;;;;;;;;;;;;;;32.73;35.79;99193.22;5074008;28;20325;-79
2023/08/27 09:27:02;;;;;;;;;;;;;;;33.01;34.94;99207.16;5073811;28;19912;-78
2023/08/27 09:29:27;;;;;;;;;;;;;;;33.24;36.27;99200.19;5055740;28;19913;-77
2023/08/27 09:31:55;;;;;;;;;;;;;;;33.47;33.54;99198.72;5074439;28;19912;-78
2023/08/27 09:34:20;;;;;;;;;;;;;;;33.61;34.21;99197.63;5074025;28;19963;-78
2023/08/27 09:36:45;;;;;;;;;;;;;;;33.82;32.91;99197.56;5073954;28;19960;-78
2023/08/27 09:39:11;;;;;;;;;;;;;;;33.84;33.91;99195.28;5073599;28;19923;-77
2023/08/27 09:41:38;;;;;;;;;;;;;;;33.96;33.37;99187.06;5055577;28;20325;-75
2023/08/27 09:44:04;;;;;;;;;;;;;;;33.93;33.85;99176.81;5073264;28;19909;-78
2023/08/27 09:46:29;;;;;;;;;;;;;;;33.90;33.05;99186.50;5073502;28;20566;-78
2023/08/27 09:48:58;;;;;;;;;;;;;;;33.97;32.99;99181.25;5073398;28;20332;-77
2023/08/27 09:51:24;;;;;;;;;;;;;;;34.09;31.34;99174.97;5055454;28;20396;-78
2023/08/27 09:53:49;;;;;;;;;;;;;;;34.18;32.67;99169.38;5071617;28;19963;-79
2023/08/27 09:56:21;;;;;;;;;;;;;;;34.41;31.17;99170.56;5055065;28;19912;-77
2023/08/27 09:58:46;;;;;;;;;;;;;;;34.56;31.17;99174.50;5055012;28;19916;-78
2023/08/27 10:01:11;;;;;;;;;;;;;;;34.59;29.49;99166.41;5073159;28;19927;-76
2023/08/27 10:03:37;;;;;;;;;;;;;;;34.54;29.88;99160.34;5073181;28;19991;-78
2023/08/27 10:06:02;;;;;;;;;;;;;;;34.71;29.20;99160.88;5055032;28;20313;-76
2023/08/27 10:08:28;;;;;;;;;;;;;;;34.92;29.94;99159.91;5072799;28;19955;-76
2023/08/27 10:11:08;;;;;;;;;;;;;;;35.22;27.33;99155.69;5072916;28;19919;-77
2023/08/27 10:13:33;;;;;;;;;;;;;;;35.37;28.25;99159.63;5055014;28;19912;-78
2023/08/27 10:15:59;;;;;;;;;;;;;;;35.52;27.69;99149.81;5072903;28;19912;-78
2023/08/27 10:18:25;;;;;;;;;;;;;;;35.76;26.11;99144.19;5072625;28;20034;-78
2023/08/27 10:20:51;;;;;;;;;;;;;;;35.86;28.34;99134.63;5072619;28;19948;-78
2023/08/27 10:23:18;;;;;;;;;;;;;;;36.02;25.32;99131.84;5072635;28;19908;-78
2023/08/27 10:25:45;;;;;;;;;;;;;;;36.09;27.54;99143.81;5072353;28;19912;-79
2023/08/27 10:28:11;;;;;;;;;;;;;;;36.19;28.08;99131.47;5072503;28;19951;-79
2023/08/27 10:30:36;;;;;;;;;;;;;;;36.29;26.33;99126.22;5072522;28;20028;-77
2023/08/27 10:33:02;;;;;;;;;;;;;;;36.53;26.70;99127.16;5054694;28;19919;-77
2023/08/27 10:35:28;;;;;;;;;;;;;;;36.62;24.40;99125.00;5054644;28;19996;-77
2023/08/27 10:37:55;;;;;;;;;;;;;;;36.60;25.53;99121.81;5054507;28;19916;-77
2023/08/27 10:40:23;;;;;;;;;;;;;;;36.85;25.68;99120.38;5054514;28;20381;-78
2023/08/27 10:42:49;;;;;;;;;;;;;;;37.08;25.29;99122.38;5072314;28;20377;-79
2023/08/27 10:45:16;;;;;;;;;;;;;;;37.01;21.89;99122.25;5054365;28;19915;-77
2023/08/27 10:47:42;;;;;;;;;;;;;;;37.19;24.31;99113.19;5072524;28;19908;-77
2023/08/27 10:50:07;;;;;;;;;;;;;;;37.34;21.55;99100.47;5072425;28;19916;-76
2023/08/27 10:52:49;;;;;;;;;;;;;;;37.46;20.17;99107.75;5072155;28;19913;-79
2023/08/27 10:55:15;;;;;;;;;;;;;;;37.41;22.00;99105.31;5071923;28;19923;-76
2023/08/27 10:57:40;;;;;;;;;;;;;;;37.29;20.53;99122.03;5072085;28;19911;-78
2023/08/27 11:00:12;;;;;;;;;;;;;;;37.36;21.37;99105.63;5054108;28;19965;-77
2023/08/27 11:02:59;;;;;;;;;;;;;;;37.58;22.15;99109.53;5072375;28;19928;-77
2023/08/27 11:05:28;;;;;;;;;;;;;;;37.71;21.97;99111.75;5053970;28;20354;-76
2023/08/27 11:07:56;;;;;;;;;;;;;;;37.94;22.38;99114.50;5072019;28;20381;-78
2023/08/27 11:10:29;;;;;;;;;;;;;;;38.07;17.46;99098.53;5072117;28;19919;-78
2023/08/27 11:12:55;;;;;;;;;;;;;;;38.17;20.83;99094.34;5072266;28;19962;-76
2023/08/27 11:15:25;;;;;;;;;;;;;;;38.14;19.61;99085.63;5072064;28;19912;-77
2023/08/27 11:17:51;;;;;;;;;;;;;;;38.18;18.77;99096.75;5071629;28;19916;-77
2023/08/27 11:20:23;;;;;;;;;;;;;;;38.08;20.80;99086.34;5071725;28;20423;-77
2023/08/27 11:22:56;;;;;;;;;;;;;;;38.12;21.16;99081.66;5053896;28;20353;-77
2023/08/27 11:25:21;;;;;;;;;;;;;;;38.33;19.68;99084.72;5071800;28;20316;-77
2023/08/27 11:27:47;;;;;;;;;;;;;;;38.45;20.63;99072.66;5071742;28;19912;-77
2023/08/27 11:30:12;;;;;;;;;;;;;;;38.61;20.90;99070.50;5071737;28;19912;-77
2023/08/27 11:32:38;;;;;;;;;;;;;;;38.56;22.10;99067.28;5053714;28;19912;-78
2023/08/27 11:35:06;;;;;;;;;;;;;;;38.52;19.27;99064.47;5071676;28;19912;-78
2023/08/27 11:37:31;;;;;;;;;;;;;;;38.62;22.22;99057.50;5071077;28;19942;-78
2023/08/27 11:39:57;;;;;;;;;;;;;;;38.70;21.41;99048.19;5053465;28;20367;-76
2023/08/27 11:42:22;;;;;;;;;;;;;;;38.83;19.20;99051.47;5071500;28;19912;-78
2023/08/27 11:44:52;;;;;;;;;;;;;;;38.73;18.37;99052.94;5071549;28;19970;-77
2023/08/27 11:47:18;;;;;;;;;;;;;;;38.86;20.20;99045.97;5071694;28;19912;-77
2023/08/27 11:49:43;;;;;;;;;;;;;;;38.96;18.80;99044.50;5053500;28;19913;-77
2023/08/27 11:52:10;;;;;;;;;;;;;;;38.86;19.63;99039.66;5071565;28;20049;-77
2023/08/27 11:54:36;;;;;;;;;;;;;;;38.89;20.09;99033.38;5071316;28;19920;-77
2023/08/27 11:57:06;;;;;;;;;;;;;;;39.01;18.94;99027.59;5071505;28;19916;-78
2023/08/27 11:59:32;;;;;;;;;;;;;;;38.85;20.52;99000.22;5071402;28;19917;-77
2023/08/27 12:01:58;;;;;;;;;;;;;;;39.20;20.45;99029.34;5071181;28;20042;-76
2023/08/27 12:04:27;;;;;;;;;;;;;;;39.14;18.86;99026.16;5071253;28;20003;-79
2023/08/27 12:06:56;;;;;;;;;;;;;;;38.96;20.30;99034.25;5053573;28;20325;-77
2023/08/27 12:09:26;;;;;;;;;;;;;;;38.89;19.72;99028.66;5071330;28;19912;-78
2023/08/27 12:11:51;;;;;;;;;;;;;;;38.94;20.48;99031.06;5071283;28;20289;-78
2023/08/27 12:14:25;;;;;;;;;;;;;;;39.01;19.72;99031.13;5071358;28;19908;-76
2023/08/27 12:16:51;;;;;;;;;;;;;;;39.05;20.09;99028.44;5071527;28;19913;-77
2023/08/27 12:19:19;;;;;;;;;;;;;;;39.01;20.23;99028.38;5071204;28;19917;-76
2023/08/27 12:21:47;;;;;;;;;;;;;;;39.07;19.59;99023.31;5076747;28;19951;-77
2023/08/27 12:24:31;;;;;;;;;;;;;;;39.15;18.91;99024.19;5094966;28;19913;-78
2023/08/27 12:26:58;;;;;;;;;;;;;;;39.26;19.30;99016.78;5076496;28;19917;-77
2023/08/27 12:29:29;;;;;;;;;;;;;;;39.24;19.67;99017.16;5053801;28;20011;-78
2023/08/27 12:31:55;;;;;;;;;;;;;;;39.27;20.34;99015.59;5071530;28;19920;-76
2023/08/27 12:34:31;;;;;;;;;;;;;;;39.28;21.19;99014.44;5071409;28;19913;-79
2023/08/27 12:36:56;;;;;;;;;;;;;;;39.32;21.70;99009.72;5071157;28;20381;-77
2023/08/27 12:39:21;;;;;;;;;;;;;;;39.37;20.50;99006.59;5070897;28;19999;-77
2023/08/27 12:41:47;;;;;;;;;;;;;;;39.34;20.44;99004.59;5053090;28;20282;-78